Népal : Un avion de ligne bangladais s'écrase à Katmandou

Népal : Un avion de ligne bangladais s'écrase à Katmandou

Message non lupar AL40 » 12 Mars 2018 14:01

Image
L'appareil de Havilland Canada DHC-8-402Q Dash 8 immatriculé S2-AGU accidenté

KATMANDOU (Reuters) - Au moins 50 des 71 occupants de l'avion de ligne bangladais qui s'est écrasé lundi lors de la phase d'atterrissage à Katmandou au Népal ont trouvé la mort dans la catastrophe, a annoncé un porte-parole de l'armée népalaise.

Dix-sept personnes présentes dans l'appareil ont pu être secourues, avait précisé auparavant un responsable aéroportuaire.

L'appareil, un "Bombardier" de la compagnie US-Bangla Airlines, assurait la liaison entre Dacca et Katmandou, avec à son bord 67 passagers et quatre membres d'équipage.

Du fait de l'accident, l'aéroport international Tribhuvan de Katmandou a été fermé et tous les vols à l'arrivée ont été déroutés vers d'autres destinations.


https://www.challenges.fr/monde/au-moin ... pal_573145


Date: 12-MAR-2018
Time: 14:20 LT
Type: de Havilland Canada DHC-8-402Q Dash 8
Owner/operator: US-Bangla Airlines
Registration: S2-AGU
C/n / msn: 4041
Fatalities: Fatalities: / Occupants: 71
Airplane damage: Written off (damaged beyond repair)
Location: Kathmandu-Tribhuvan Airport (KTM/VNKT) - Nepal
Phase: Landing
Nature: International Scheduled Passenger
Departure airport: Dhaka-Shahjalal International Airport (DAC)
Destination airport: Kathmandu Airport (KTM)
Narrative:
US-Bangla Airlines flight BS211, a DHC-8-Q400 (S2-AGU) crashed on landing at Kathmandu, Nepal.
At the time of the accident a thunderstorm was passing the airport with cumulonimbus clouds passing at 2500ft.
Fourteen passengers were pulled out and rushed to the hospital, according to local media.
There were 67 passengers and four crew members on board.

Weather at the time of the accident (14:20 LT / 08:35Z):
VNKT 120850Z 26007KT 140V300 7000 FEW015 FEW025CB SCT030 BKN100 21/10 Q1015 NOSIG CB TO SE AND S
VNKT 120820Z 28008KT 240V320 6000 TS FEW015 FEW025CB SCT030 22/11 Q1015 NOSIG CB TO SE S AND SW


https://aviation-safety.net/wikibase/wiki.php?id=207404
Avatar du Gaulois
AL40
 
Messages: 583
Inscrit le: 30 Mai 2011 23:21

...
 

Pub

T'as un avis gaulois ? Viens faire entendre ta voix avant de la donner ... INSCRIPTION
 

Retour vers Accidents aériens

Quel Gaulois est en ligne ?

Utilisateur(s) parcourant PDG : Aucun Gaulois inscrit et 23 futurs Gaulois invités

  • Annonces Google
  • -->
    -->